Nowy Jork, NY

00:11 EDT dnia 25-październik-2014 (GMT -0400)
Murray Hill | Change Station
CLOSE
Current Station
Stacja PWS
Location: New York, NY
n.p.m.: 98 ft
Najbliższa stacja pogodowa

Wysokość 98 ft 40.75 °N, 73.98 °W | Updated 11 seconds ago

Clear
pogodnie
57.4 ° F
Odczuwalna 57.4 ° F
Płn.
2.0
Wiatr zmienny Wiatr od PnZd
Gusts 17.0 mph

Dziś
Wysoka -- | Niska -- ° F
--% Prawdop. opadów
Wczoraj
Wysoka -- | Niska -- ° F
Precip. -- cali
7:18 AM 6:01 PM
Nów, 2% visible
Ciśnienie 29.84 cali
Widzialność 10.0 mil
chmury pogodnie
Punkt rosy 41 ° F
Wilgotność 54%
Opady deszczu 0.00 cali
grubość pokrywy śnieżnej Niedostępne.
UV 0 z 12
Pyłki 1.70 z 12
Ozon Dobre
PM2.5 Dobre
Flu Activity Sporadic
METAR KNYC 250351Z AUTO VRB06KT 10SM CLR 14/03 A2987 RMK AO2 SLP104 T01390033 $

More Conditions Fewer Conditions

Ciśnienie 29.84 cali
Widzialność 10.0 mil
chmury pogodnie
Punkt rosy 41 ° F
Wilgotność 54%
Opady deszczu 0.00 cali
grubość pokrywy śnieżnej Niedostępne.
UV 0 z 12
Pyłki 1.70 z 12
Ozon Dobre
PM2.5 Dobre
Flu Activity Sporadic
METAR KNYC 250351Z AUTO VRB06KT 10SM CLR 14/03 A2987 RMK AO2 SLP104 T01390033 $

More Conditions Fewer Conditions

10-Day Weather Forecast

Almanac

Astronomia

Oct. 25, 2014 Wschód Zachów
Aktualny czas 07:18 EDT 18:01 EDT
Zmierzch cywilny 06:50 EDT 18:29 EDT
Zmierzch żeglarski 06:18 EDT 19:01 EDT
świt/zmierzch astronomiczny 05:46 EDT 19:32 EDT
Księżyc 08:54 EDT 19:21 EDT
całkowite oświetlenie 11h 39m
Długość dnia
10h 42m
Tomorrow will be 2m 29s shorter.
Nów, 2% of the Moon is Illuminated
Dziś
Nów
Październik 30
Pierwsza kwadra
Listopad 6
Pełnia Księżyca
Listopad 14
Ostatnia kwadra
Listopad 22
Nowy

Wczorajsze ekstrema

State Highs State Lows

Community

WunderPhotos

Upload Photos

1,764,779 zdjęcia zostały przesłane!

Nearby

Jakość powietrza

  Jakość powietrza czynnik AQ Zanieczyszczenie
Wczoraj Dobre
OZONE
Wczoraj Dobre
PM2.5
Obecnie Dobre
PM2.5
Obecnie Dobre
OZONE
Piątek Dobre
PM2.5
Sobota Dobre
PM2.5
Niedziela Dobre
PM2.5
Poniedziałek Dobre
PM2.5

Głębokość pokrywy śnieżnej

Station Depth n.p.m.
Brak zgłoszeń świeżych opadów śniegu.

Aktywność sejsmiczna

Miejscowość Distance Mag. Time & Date
No recent earthquake activity has been reported nearby.
Minimum magnitude displayed is 2.5.

Temperatury wody na wybrzeżu

Miejsce Temperatura
Sandy Hook, NJ 57.9 ° F
The Battery, NY 61.0 ° F
Bergen Point West Reach, NJ 60.1 ° F
Kings Point, NY 57.9 ° F

Najbliższa stacja pogodowa